createdAt,value
2022-10-31T00:01:01.189Z,9.75
2022-10-31T00:03:28.236Z,9.68
2022-10-31T00:05:55.388Z,9.63
2022-10-31T00:08:22.550Z,9.59
2022-10-31T00:10:49.930Z,9.57
2022-10-31T00:13:17.331Z,9.55
2022-10-31T00:15:44.712Z,9.55
2022-10-31T00:18:12.449Z,9.56
2022-10-31T00:20:40.527Z,9.57
2022-10-31T00:23:08.284Z,9.59
2022-10-31T00:25:37.709Z,9.60
2022-10-31T00:28:06.097Z,9.62
2022-10-31T00:30:34.050Z,9.62
2022-10-31T00:33:02.297Z,9.62
2022-10-31T00:35:29.978Z,9.63
2022-10-31T00:37:57.230Z,9.64
2022-10-31T00:40:24.372Z,9.64
2022-10-31T00:42:52.383Z,9.64
2022-10-31T00:45:19.610Z,9.63
2022-10-31T00:47:46.799Z,9.63
2022-10-31T00:50:14.027Z,9.60
2022-10-31T00:52:42.197Z,9.56
2022-10-31T00:55:10.446Z,9.52
2022-10-31T00:57:37.909Z,9.49
2022-10-31T01:00:06.181Z,9.46
2022-10-31T01:02:33.609Z,9.44
2022-10-31T01:05:01.558Z,9.42
2022-10-31T01:07:28.757Z,9.41
2022-10-31T01:09:55.905Z,9.38
2022-10-31T01:12:24.710Z,9.36
2022-10-31T01:14:51.845Z,9.36
2022-10-31T01:17:19.528Z,9.35
2022-10-31T01:19:47.889Z,9.33
2022-10-31T01:22:15.147Z,9.29
2022-10-31T01:24:42.330Z,9.17
2022-10-31T01:27:09.363Z,9.08
2022-10-31T01:29:36.581Z,9.00
2022-10-31T01:32:03.933Z,8.94
2022-10-31T01:34:32.129Z,8.89
2022-10-31T01:36:59.178Z,8.86
2022-10-31T01:39:26.307Z,8.86
2022-10-31T01:41:55.539Z,8.86
2022-10-31T01:44:23.720Z,8.87
2022-10-31T01:46:58.388Z,8.87
2022-10-31T01:49:33.497Z,8.88
2022-10-31T01:52:08.648Z,8.90
2022-10-31T01:54:39.394Z,8.91
2022-10-31T01:57:09.295Z,8.92
2022-10-31T01:59:38.352Z,8.95
2022-10-31T02:02:05.809Z,8.98
2022-10-31T02:04:33.334Z,9.02
2022-10-31T02:07:04.431Z,9.05
2022-10-31T02:09:33.207Z,9.08
2022-10-31T02:12:03.804Z,9.10
2022-10-31T02:14:31.857Z,9.11
2022-10-31T02:16:59.401Z,9.11
2022-10-31T02:20:04.052Z,9.10
2022-10-31T02:22:58.709Z,9.07
2022-10-31T02:25:47.906Z,9.07
2022-10-31T02:28:36.666Z,9.06
2022-10-31T02:31:08.883Z,9.04
2022-10-31T02:33:47.469Z,8.98
2022-10-31T02:36:23.919Z,8.93
2022-10-31T02:39:10.285Z,8.87
2022-10-31T02:42:18.087Z,8.81
2022-10-31T02:44:49.566Z,8.78
2022-10-31T02:47:19.311Z,8.77
2022-10-31T02:49:50.422Z,8.76
2022-10-31T02:52:23.190Z,8.74
2022-10-31T02:54:50.471Z,8.71
2022-10-31T02:57:21.397Z,8.68
2022-10-31T02:59:51.327Z,8.62
2022-10-31T03:02:31.000Z,8.54
2022-10-31T03:05:06.902Z,8.47
2022-10-31T03:07:52.708Z,8.42
2022-10-31T03:10:32.825Z,8.39
2022-10-31T03:15:58.093Z,8.41
2022-10-31T03:18:31.126Z,8.43
2022-10-31T03:21:06.968Z,8.45
2022-10-31T03:23:37.059Z,8.44
2022-10-31T03:26:06.800Z,8.42
2022-10-31T03:28:45.537Z,8.38
2022-10-31T03:31:17.517Z,8.36
2022-10-31T03:33:45.990Z,8.35
2022-10-31T03:36:16.326Z,8.33
2022-10-31T03:38:44.518Z,8.31
2022-10-31T03:41:15.873Z,8.29
2022-10-31T03:43:54.370Z,8.27
2022-10-31T03:46:21.747Z,8.27
2022-10-31T03:48:50.622Z,8.24
2022-10-31T03:51:24.229Z,8.20
2022-10-31T03:54:03.756Z,8.15
2022-10-31T03:56:35.091Z,8.11
2022-10-31T03:59:07.421Z,8.11
2022-10-31T04:01:40.048Z,8.09
2022-10-31T04:04:08.461Z,8.08
2022-10-31T04:06:37.157Z,8.06
2022-10-31T04:09:06.192Z,8.05
2022-10-31T04:11:37.788Z,8.04
2022-10-31T04:14:39.825Z,8.04
2022-10-31T04:17:10.310Z,8.04
2022-10-31T04:19:39.470Z,8.03
2022-10-31T04:22:06.731Z,7.99
2022-10-31T04:24:34.169Z,7.93
2022-10-31T04:27:01.315Z,7.87
2022-10-31T04:29:28.968Z,7.81
2022-10-31T04:31:56.748Z,7.74
2022-10-31T04:34:24.109Z,7.69
2022-10-31T04:36:52.365Z,7.64
2022-10-31T04:39:24.034Z,7.60
2022-10-31T04:42:13.761Z,7.55
2022-10-31T04:44:40.796Z,7.52
2022-10-31T04:47:08.693Z,7.50
2022-10-31T04:49:36.872Z,7.49
2022-10-31T04:52:04.044Z,7.49
2022-10-31T04:54:31.174Z,7.48
2022-10-31T04:57:24.271Z,7.47
2022-10-31T04:59:51.520Z,7.49
2022-10-31T05:02:18.733Z,7.50
2022-10-31T05:04:51.749Z,7.50
2022-10-31T05:07:19.257Z,7.48
2022-10-31T05:09:46.351Z,7.46
2022-10-31T05:12:13.710Z,7.44
2022-10-31T05:15:13.629Z,7.44
2022-10-31T05:17:59.892Z,7.42
2022-10-31T05:20:50.013Z,7.43
2022-10-31T05:23:24.842Z,7.45
2022-10-31T05:25:51.988Z,7.47
2022-10-31T05:28:19.155Z,7.49
2022-10-31T05:30:46.238Z,7.50
2022-10-31T05:33:15.473Z,7.50
2022-10-31T05:36:01.370Z,7.48
2022-10-31T05:38:37.317Z,7.47
2022-10-31T05:41:25.292Z,7.45
2022-10-31T05:43:54.171Z,7.43
2022-10-31T05:46:24.349Z,7.44
2022-10-31T05:49:14.558Z,7.44
2022-10-31T05:52:00.484Z,7.46
2022-10-31T05:54:35.081Z,7.50
2022-10-31T05:57:02.198Z,7.52
2022-10-31T05:59:29.265Z,7.54
2022-10-31T06:01:56.494Z,7.56
2022-10-31T06:04:46.869Z,7.56
2022-10-31T06:07:14.163Z,7.58
2022-10-31T06:09:41.330Z,7.59
2022-10-31T06:12:08.780Z,7.61
2022-10-31T06:14:54.759Z,7.63
2022-10-31T06:17:22.120Z,7.64
2022-10-31T06:22:22.790Z,7.71
2022-10-31T06:24:50.329Z,7.75
2022-10-31T06:27:29.049Z,7.81
2022-10-31T06:29:56.521Z,7.84
2022-10-31T06:32:32.312Z,7.88
2022-10-31T06:35:00.476Z,7.92
2022-10-31T06:37:27.574Z,7.97
2022-10-31T06:39:59.966Z,8.04
2022-10-31T06:42:27.023Z,8.10
2022-10-31T06:44:54.659Z,8.14
2022-10-31T06:47:56.833Z,8.21
2022-10-31T06:50:32.553Z,8.26
2022-10-31T06:53:00.215Z,8.31
2022-10-31T06:55:28.527Z,8.38
2022-10-31T06:58:02.030Z,8.46
2022-10-31T07:00:32.191Z,8.55
2022-10-31T07:03:11.890Z,8.65
2022-10-31T07:05:39.685Z,8.76
2022-10-31T07:08:09.872Z,8.87
2022-10-31T07:10:40.486Z,8.98
2022-10-31T07:13:15.945Z,9.09
2022-10-31T07:15:47.395Z,9.20
2022-10-31T07:18:14.745Z,9.32
2022-10-31T07:20:43.323Z,9.42
2022-10-31T07:23:12.224Z,9.52
2022-10-31T07:25:40.901Z,9.63
2022-10-31T07:28:13.047Z,9.75
2022-10-31T07:30:40.746Z,9.86
2022-10-31T07:33:09.824Z,9.97
2022-10-31T07:35:57.566Z,10.10
2022-10-31T07:38:25.546Z,10.21
2022-10-31T07:40:56.584Z,10.34
2022-10-31T07:43:24.127Z,10.47
2022-10-31T07:46:24.246Z,10.63
2022-10-31T07:49:09.931Z,10.79
2022-10-31T07:51:58.309Z,10.96
2022-10-31T07:54:44.286Z,11.12
2022-10-31T07:57:11.926Z,11.25
2022-10-31T07:59:39.306Z,11.38
2022-10-31T08:02:07.066Z,11.52
2022-10-31T08:05:01.653Z,11.69
2022-10-31T08:07:47.445Z,11.84
2022-10-31T08:10:17.347Z,11.97
2022-10-31T08:12:44.902Z,12.09
2022-10-31T08:15:12.983Z,12.20
2022-10-31T08:17:40.327Z,12.31
2022-10-31T08:20:08.738Z,12.43
2022-10-31T08:22:43.748Z,12.54
2022-10-31T08:25:11.525Z,12.64
2022-10-31T08:27:39.430Z,12.74
2022-10-31T08:30:07.771Z,12.85
2022-10-31T08:32:36.638Z,12.96
2022-10-31T08:35:22.936Z,13.09
2022-10-31T08:38:14.346Z,13.23
2022-10-31T08:40:42.466Z,13.37
2022-10-31T08:43:17.591Z,13.49
2022-10-31T08:45:46.228Z,13.63
2022-10-31T08:48:18.890Z,13.77
2022-10-31T08:50:47.373Z,13.93
2022-10-31T08:53:17.214Z,14.09
2022-10-31T08:55:48.367Z,14.26
2022-10-31T08:58:26.573Z,14.44
2022-10-31T09:01:00.631Z,14.62
2022-10-31T09:03:30.471Z,14.78
2022-10-31T09:06:01.707Z,14.99
2022-10-31T09:08:31.351Z,15.20
2022-10-31T09:10:59.309Z,15.40
2022-10-31T09:13:46.958Z,15.60
2022-10-31T09:16:53.161Z,15.78
2022-10-31T09:19:22.927Z,15.93
2022-10-31T09:21:55.594Z,16.08
2022-10-31T09:24:23.263Z,16.21
2022-10-31T09:26:50.732Z,16.32
2022-10-31T09:29:20.697Z,16.44
2022-10-31T09:31:51.677Z,16.57
2022-10-31T09:34:45.280Z,16.69
2022-10-31T09:37:16.180Z,16.80
2022-10-31T09:39:43.433Z,16.89
2022-10-31T09:42:37.213Z,16.98
2022-10-31T09:45:28.117Z,17.07
2022-10-31T09:48:35.502Z,17.14
2022-10-31T09:51:15.870Z,17.20
2022-10-31T09:53:59.202Z,17.26
2022-10-31T09:56:27.371Z,17.34
2022-10-31T09:58:59.574Z,17.39
2022-10-31T10:01:48.795Z,17.44
2022-10-31T10:04:43.396Z,17.48
2022-10-31T10:07:42.504Z,17.54
2022-10-31T10:10:20.405Z,17.60
2022-10-31T10:13:37.425Z,17.67
2022-10-31T10:16:20.847Z,17.74
2022-10-31T10:19:14.006Z,17.79
2022-10-31T10:21:50.068Z,17.86
2022-10-31T10:24:35.335Z,17.92
2022-10-31T10:27:43.575Z,17.97
2022-10-31T10:30:22.190Z,18.03
2022-10-31T10:32:53.126Z,18.09
2022-10-31T10:35:28.464Z,18.15
2022-10-31T10:38:01.411Z,18.21
2022-10-31T10:40:29.631Z,18.26
2022-10-31T10:43:22.481Z,18.31
2022-10-31T10:46:25.372Z,18.36
2022-10-31T10:48:59.665Z,18.40
2022-10-31T10:51:58.264Z,18.43
2022-10-31T10:54:44.441Z,18.47
2022-10-31T10:57:14.454Z,18.52
2022-10-31T10:59:43.897Z,18.56
2022-10-31T11:02:32.774Z,18.59
2022-10-31T11:05:02.445Z,18.64
2022-10-31T11:07:40.355Z,18.67
2022-10-31T11:10:15.291Z,18.72
2022-10-31T11:12:43.656Z,18.76
2022-10-31T11:15:23.901Z,18.80
2022-10-31T11:17:56.901Z,18.84
2022-10-31T11:20:31.726Z,18.86
2022-10-31T11:23:17.509Z,18.90
2022-10-31T11:26:02.819Z,18.94
2022-10-31T11:28:31.661Z,18.97
2022-10-31T11:31:07.617Z,19.00
2022-10-31T11:33:38.661Z,19.03
2022-10-31T11:36:20.363Z,19.06
2022-10-31T11:38:47.726Z,19.11
2022-10-31T11:41:17.789Z,19.14
2022-10-31T11:43:52.588Z,19.17
2022-10-31T11:46:42.440Z,19.20
2022-10-31T11:49:22.180Z,19.21
2022-10-31T11:51:54.350Z,19.21
2022-10-31T11:54:26.006Z,19.23
2022-10-31T11:56:53.359Z,19.26
2022-10-31T11:59:32.209Z,19.28
2022-10-31T12:02:02.356Z,19.30
2022-10-31T12:04:34.369Z,19.31
2022-10-31T12:07:01.820Z,19.33
2022-10-31T12:09:31.647Z,19.34
2022-10-31T12:12:12.295Z,19.37
2022-10-31T12:15:13.549Z,19.39
2022-10-31T12:17:46.518Z,19.40
2022-10-31T12:20:38.886Z,19.43
2022-10-31T12:23:25.477Z,19.46
2022-10-31T12:26:15.032Z,19.48
2022-10-31T12:29:07.087Z,19.50
2022-10-31T12:31:54.526Z,19.51
2022-10-31T12:35:19.446Z,19.52
2022-10-31T12:38:05.425Z,19.53
2022-10-31T12:40:57.883Z,19.55
2022-10-31T12:44:07.106Z,19.56
2022-10-31T12:46:40.387Z,19.59
2022-10-31T12:49:58.727Z,19.60
2022-10-31T12:52:33.658Z,19.61
2022-10-31T12:55:11.244Z,19.60
2022-10-31T12:57:44.608Z,19.60
2022-10-31T13:00:19.367Z,19.60
2022-10-31T13:02:58.381Z,19.60
2022-10-31T13:05:35.485Z,19.60
2022-10-31T13:08:13.309Z,19.60
2022-10-31T13:10:46.742Z,19.61
2022-10-31T13:13:20.407Z,19.61
2022-10-31T13:15:51.157Z,19.59
2022-10-31T13:18:47.155Z,19.58
2022-10-31T13:21:20.456Z,19.57
2022-10-31T13:23:52.250Z,19.56
2022-10-31T13:26:33.462Z,19.55
2022-10-31T13:29:37.916Z,19.53
2022-10-31T13:32:11.094Z,19.51
2022-10-31T13:34:44.988Z,19.49
2022-10-31T13:37:36.430Z,19.48
2022-10-31T13:40:46.375Z,19.47
2022-10-31T13:43:42.787Z,19.44
2022-10-31T13:46:40.528Z,19.42
2022-10-31T13:49:26.790Z,19.40
2022-10-31T13:51:54.643Z,19.37
2022-10-31T13:54:33.977Z,19.35
2022-10-31T13:57:02.067Z,19.33
2022-10-31T13:59:32.687Z,19.32
2022-10-31T14:02:02.455Z,19.31
2022-10-31T14:04:38.225Z,19.29
2022-10-31T14:07:17.836Z,19.27
2022-10-31T14:09:57.602Z,19.24
2022-10-31T14:12:40.564Z,19.21
2022-10-31T14:15:14.166Z,19.18
2022-10-31T14:17:48.473Z,19.15
2022-10-31T14:20:15.717Z,19.12
2022-10-31T14:22:43.388Z,19.10
2022-10-31T14:25:29.649Z,19.07
2022-10-31T14:27:59.615Z,19.03
2022-10-31T14:30:29.113Z,18.99
2022-10-31T14:33:01.994Z,18.95
2022-10-31T14:35:59.247Z,18.92
2022-10-31T14:39:03.887Z,18.87
2022-10-31T14:41:50.578Z,18.81
2022-10-31T14:44:31.349Z,18.75
2022-10-31T14:47:16.254Z,18.70
2022-10-31T14:50:01.797Z,18.65
2022-10-31T14:52:29.247Z,18.59
2022-10-31T14:55:00.184Z,18.55
2022-10-31T14:57:31.125Z,18.49
2022-10-31T15:00:07.073Z,18.42
2022-10-31T15:02:56.877Z,18.35
2022-10-31T15:05:24.344Z,18.27
2022-10-31T15:07:59.253Z,18.20
2022-10-31T15:10:28.467Z,18.12
2022-10-31T15:12:55.775Z,18.04
2022-10-31T15:15:27.601Z,17.96
2022-10-31T15:17:57.995Z,17.88
2022-10-31T15:20:30.780Z,17.81
2022-10-31T15:22:59.681Z,17.74
2022-10-31T15:25:30.164Z,17.67
2022-10-31T15:27:57.329Z,17.60
2022-10-31T15:30:27.589Z,17.54
2022-10-31T15:32:58.964Z,17.48
2022-10-31T15:35:31.225Z,17.42
2022-10-31T15:38:00.546Z,17.35
2022-10-31T15:40:29.464Z,17.29
2022-10-31T15:43:03.125Z,17.22
2022-10-31T15:45:31.720Z,17.13
2022-10-31T15:48:01.603Z,17.06
2022-10-31T15:50:33.553Z,16.99
2022-10-31T15:53:01.598Z,16.93
2022-10-31T15:55:31.299Z,16.87
2022-10-31T15:58:00.598Z,16.81
2022-10-31T16:00:35.324Z,16.75
2022-10-31T16:03:21.236Z,16.68
2022-10-31T16:06:00.072Z,16.59
2022-10-31T16:08:30.258Z,16.51
2022-10-31T16:11:00.686Z,16.44
2022-10-31T16:13:30.732Z,16.38
2022-10-31T16:16:34.174Z,16.33
2022-10-31T16:19:02.933Z,16.26
2022-10-31T16:21:33.257Z,16.20
2022-10-31T16:24:06.241Z,16.12
2022-10-31T16:26:34.373Z,16.04
2022-10-31T16:29:04.747Z,15.97
2022-10-31T16:31:39.111Z,15.90
2022-10-31T16:34:23.734Z,15.82
2022-10-31T16:36:53.538Z,15.73
2022-10-31T16:39:20.971Z,15.65
2022-10-31T16:41:52.699Z,15.57
2022-10-31T16:44:27.633Z,15.49
2022-10-31T16:47:14.959Z,15.41
2022-10-31T16:49:43.542Z,15.33
2022-10-31T16:52:17.460Z,15.26
2022-10-31T16:54:45.210Z,15.18
2022-10-31T16:57:21.136Z,15.11
2022-10-31T16:59:50.170Z,15.05
2022-10-31T17:02:18.354Z,14.97
2022-10-31T17:04:45.708Z,14.89
2022-10-31T17:07:13.165Z,14.80
2022-10-31T17:09:40.505Z,14.72
2022-10-31T17:12:11.053Z,14.66
2022-10-31T17:14:38.385Z,14.61
2022-10-31T17:17:06.553Z,14.54
2022-10-31T17:19:35.466Z,14.45
2022-10-31T17:22:03.954Z,14.33
2022-10-31T17:24:31.406Z,14.12
2022-10-31T17:26:58.743Z,13.94
2022-10-31T17:29:25.990Z,13.83
2022-10-31T17:31:53.784Z,13.68
2022-10-31T17:34:21.115Z,13.59
2022-10-31T17:36:52.650Z,13.52
2022-10-31T17:39:21.194Z,13.48
2022-10-31T17:41:52.934Z,13.44
2022-10-31T17:44:20.910Z,13.39
2022-10-31T17:46:48.746Z,13.35
2022-10-31T17:49:16.303Z,13.33
2022-10-31T17:51:44.361Z,13.29
2022-10-31T17:54:12.546Z,13.25
2022-10-31T17:56:39.835Z,13.20
2022-10-31T17:59:07.760Z,13.14
2022-10-31T18:01:35.654Z,13.06
2022-10-31T18:04:03.711Z,12.98
2022-10-31T18:06:31.368Z,12.90
2022-10-31T18:09:03.966Z,12.84
2022-10-31T18:11:31.941Z,12.79
2022-10-31T18:14:00.965Z,12.76
2022-10-31T18:16:28.900Z,12.74
2022-10-31T18:19:02.257Z,12.70
2022-10-31T18:21:30.043Z,12.63
2022-10-31T18:24:00.197Z,12.57
2022-10-31T18:26:29.368Z,12.54
2022-10-31T18:28:56.892Z,12.50
2022-10-31T18:31:26.119Z,12.45
2022-10-31T18:33:57.755Z,12.39
2022-10-31T18:36:25.827Z,12.34
2022-10-31T18:38:55.685Z,12.31
2022-10-31T18:41:23.516Z,12.26
2022-10-31T18:43:51.836Z,12.23
2022-10-31T18:46:20.866Z,12.20
2022-10-31T18:48:49.066Z,12.18
2022-10-31T18:51:19.267Z,12.17
2022-10-31T18:53:54.985Z,12.15
2022-10-31T18:56:24.019Z,12.12
2022-10-31T18:58:52.106Z,12.08
2022-10-31T19:01:21.504Z,12.06
2022-10-31T19:03:56.752Z,12.03
2022-10-31T19:06:28.642Z,11.95
2022-10-31T19:09:01.669Z,11.82
2022-10-31T19:11:29.026Z,11.71
2022-10-31T19:13:57.731Z,11.64
2022-10-31T19:16:26.194Z,11.59
2022-10-31T19:18:56.767Z,11.55
2022-10-31T19:21:24.793Z,11.52
2022-10-31T19:23:54.453Z,11.47
2022-10-31T19:26:22.084Z,11.42
2022-10-31T19:28:50.276Z,11.38
2022-10-31T19:31:19.986Z,11.35
2022-10-31T19:33:47.506Z,11.31
2022-10-31T19:36:17.322Z,11.27
2022-10-31T19:38:47.367Z,11.20
2022-10-31T19:41:18.072Z,11.11
2022-10-31T19:43:46.028Z,10.98
2022-10-31T19:46:22.132Z,10.90
2022-10-31T19:49:01.526Z,10.85
2022-10-31T19:51:29.016Z,10.84
2022-10-31T19:53:56.860Z,10.84
2022-10-31T19:56:25.822Z,10.82
2022-10-31T19:58:53.690Z,10.79
2022-10-31T20:01:23.567Z,10.76
2022-10-31T20:03:52.148Z,10.74
2022-10-31T20:06:25.577Z,10.73
2022-10-31T20:08:54.395Z,10.69
2022-10-31T20:11:23.957Z,10.65
2022-10-31T20:13:51.250Z,10.59
2022-10-31T20:16:18.611Z,10.54
2022-10-31T20:18:47.309Z,10.52
2022-10-31T20:21:18.077Z,10.51
2022-10-31T20:23:48.355Z,10.50
2022-10-31T20:26:18.430Z,10.50
2022-10-31T20:28:46.944Z,10.48
2022-10-31T20:31:20.604Z,10.47
2022-10-31T20:33:49.487Z,10.43
2022-10-31T20:36:23.160Z,10.38
2022-10-31T20:38:52.987Z,10.36
2022-10-31T20:41:21.573Z,10.34
2022-10-31T20:43:49.359Z,10.33
2022-10-31T20:46:20.351Z,10.31
2022-10-31T20:48:47.960Z,10.27
2022-10-31T20:51:24.314Z,10.26
2022-10-31T20:53:54.628Z,10.25
2022-10-31T20:56:24.483Z,10.24
2022-10-31T20:58:53.104Z,10.21
2022-10-31T21:01:23.444Z,10.17
2022-10-31T21:03:52.976Z,10.13
2022-10-31T21:06:21.977Z,10.11
2022-10-31T21:08:51.126Z,10.09
2022-10-31T21:11:21.598Z,10.08
2022-10-31T21:13:49.401Z,10.05
2022-10-31T21:16:43.168Z,10.03
2022-10-31T21:19:10.838Z,9.96
2022-10-31T21:21:38.029Z,9.88
2022-10-31T21:24:08.549Z,9.79
2022-10-31T21:26:38.948Z,9.71
2022-10-31T21:29:08.923Z,9.67
2022-10-31T21:31:37.478Z,9.65
2022-10-31T21:34:05.504Z,9.62
2022-10-31T21:36:34.084Z,9.62
2022-10-31T21:39:01.346Z,9.61
2022-10-31T21:41:28.921Z,9.61
2022-10-31T21:43:56.563Z,9.61
2022-10-31T21:46:26.443Z,9.60
2022-10-31T21:48:53.908Z,9.60
2022-10-31T21:51:23.430Z,9.60
2022-10-31T21:54:10.111Z,9.61
2022-10-31T21:56:38.124Z,9.62
2022-10-31T21:59:06.311Z,9.63
2022-10-31T22:01:34.500Z,9.63
2022-10-31T22:04:01.902Z,9.62
2022-10-31T22:06:30.885Z,9.62
2022-10-31T22:09:03.591Z,9.61
2022-10-31T22:11:30.947Z,9.60
2022-10-31T22:14:01.723Z,9.60
2022-10-31T22:16:30.125Z,9.60
2022-10-31T22:18:59.662Z,9.59
2022-10-31T22:21:28.326Z,9.58
2022-10-31T22:24:03.328Z,9.55
2022-10-31T22:26:32.890Z,9.49
2022-10-31T22:29:03.464Z,9.44
2022-10-31T22:31:31.837Z,9.38
2022-10-31T22:33:59.685Z,9.33
2022-10-31T22:36:28.669Z,9.26
2022-10-31T22:38:56.515Z,9.21
2022-10-31T22:41:26.076Z,9.18
2022-10-31T22:43:54.344Z,9.15
2022-10-31T22:46:27.388Z,9.15
2022-10-31T22:49:10.623Z,9.14
2022-10-31T22:51:39.658Z,9.14
2022-10-31T22:54:15.713Z,9.13
2022-10-31T22:56:42.873Z,9.11
2022-10-31T22:59:13.776Z,9.10
2022-10-31T23:01:41.256Z,9.09
2022-10-31T23:04:09.134Z,9.07
2022-10-31T23:06:37.763Z,9.05
2022-10-31T23:09:07.687Z,9.03
2022-10-31T23:11:38.100Z,9.02
2022-10-31T23:14:11.005Z,9.03
2022-10-31T23:16:51.488Z,9.03
2022-10-31T23:19:27.938Z,9.02
2022-10-31T23:22:02.372Z,9.01
2022-10-31T23:24:33.741Z,8.99
2022-10-31T23:27:08.924Z,8.98
2022-10-31T23:29:43.547Z,8.98
2022-10-31T23:32:21.010Z,8.97
2022-10-31T23:34:50.079Z,8.96
2022-10-31T23:37:18.921Z,8.93
2022-10-31T23:39:46.386Z,8.93
2022-10-31T23:42:14.343Z,8.92
2022-10-31T23:44:41.750Z,8.92
2022-10-31T23:47:09.392Z,8.90
2022-10-31T23:49:36.827Z,8.90
2022-10-31T23:52:05.101Z,8.89
2022-10-31T23:54:33.068Z,8.88
2022-10-31T23:57:00.446Z,8.90
2022-10-31T23:59:29.356Z,8.90
